sensor_id;sensor_type;location;lat;lon;timestamp;P1;durP1;ratioP1;P2;durP2;ratioP2
313;SDS011;143;51.634;7.112;2023-05-07T00:02:22;15.80;;;8.33;;
313;SDS011;143;51.634;7.112;2023-05-07T00:04:48;12.20;;;9.40;;
313;SDS011;143;51.634;7.112;2023-05-07T00:07:14;11.23;;;7.80;;
313;SDS011;143;51.634;7.112;2023-05-07T00:09:40;13.37;;;8.30;;
313;SDS011;143;51.634;7.112;2023-05-07T00:12:06;11.20;;;9.03;;
313;SDS011;143;51.634;7.112;2023-05-07T00:14:32;19.60;;;9.47;;
313;SDS011;143;51.634;7.112;2023-05-07T00:16:57;12.33;;;7.60;;
313;SDS011;143;51.634;7.112;2023-05-07T00:19:23;11.50;;;8.40;;
313;SDS011;143;51.634;7.112;2023-05-07T00:21:49;23.70;;;10.03;;
313;SDS011;143;51.634;7.112;2023-05-07T00:24:15;13.43;;;6.90;;
313;SDS011;143;51.634;7.112;2023-05-07T00:26:40;8.73;;;7.30;;
313;SDS011;143;51.634;7.112;2023-05-07T00:29:06;10.43;;;8.17;;
313;SDS011;143;51.634;7.112;2023-05-07T00:31:32;12.10;;;8.20;;
313;SDS011;143;51.634;7.112;2023-05-07T00:33:58;13.70;;;9.07;;
313;SDS011;143;51.634;7.112;2023-05-07T00:36:23;14.33;;;9.90;;
313;SDS011;143;51.634;7.112;2023-05-07T00:38:51;19.27;;;8.37;;
313;SDS011;143;51.634;7.112;2023-05-07T00:41:16;16.53;;;8.90;;
313;SDS011;143;51.634;7.112;2023-05-07T00:43:42;10.27;;;7.97;;
313;SDS011;143;51.634;7.112;2023-05-07T00:46:08;12.30;;;8.87;;
313;SDS011;143;51.634;7.112;2023-05-07T00:48:35;16.23;;;10.17;;
313;SDS011;143;51.634;7.112;2023-05-07T00:51:00;10.00;;;6.47;;
313;SDS011;143;51.634;7.112;2023-05-07T00:53:26;12.60;;;8.87;;
313;SDS011;143;51.634;7.112;2023-05-07T00:55:52;12.67;;;8.43;;
313;SDS011;143;51.634;7.112;2023-05-07T00:58:18;13.43;;;9.37;;
313;SDS011;143;51.634;7.112;2023-05-07T01:00:45;15.43;;;8.97;;
313;SDS011;143;51.634;7.112;2023-05-07T01:03:10;10.20;;;7.50;;
313;SDS011;143;51.634;7.112;2023-05-07T01:05:36;10.33;;;7.50;;
313;SDS011;143;51.634;7.112;2023-05-07T01:08:02;11.23;;;8.73;;
313;SDS011;143;51.634;7.112;2023-05-07T01:10:28;11.63;;;7.90;;
313;SDS011;143;51.634;7.112;2023-05-07T01:12:55;9.03;;;7.27;;
313;SDS011;143;51.634;7.112;2023-05-07T01:15:22;9.97;;;7.70;;
313;SDS011;143;51.634;7.112;2023-05-07T01:17:48;15.53;;;8.03;;
313;SDS011;143;51.634;7.112;2023-05-07T01:20:14;18.70;;;7.73;;
313;SDS011;143;51.634;7.112;2023-05-07T01:22:40;15.00;;;8.67;;
313;SDS011;143;51.634;7.112;2023-05-07T01:25:08;12.30;;;8.10;;
313;SDS011;143;51.634;7.112;2023-05-07T01:27:34;8.60;;;7.00;;
313;SDS011;143;51.634;7.112;2023-05-07T01:30:01;12.33;;;7.50;;
313;SDS011;143;51.634;7.112;2023-05-07T01:35:05;9.87;;;7.97;;
313;SDS011;143;51.634;7.112;2023-05-07T01:37:35;11.07;;;8.00;;
313;SDS011;143;51.634;7.112;2023-05-07T01:40:01;10.33;;;7.70;;
313;SDS011;143;51.634;7.112;2023-05-07T01:42:28;9.60;;;7.17;;
313;SDS011;143;51.634;7.112;2023-05-07T01:44:54;9.80;;;7.63;;
313;SDS011;143;51.634;7.112;2023-05-07T01:47:21;9.90;;;7.47;;
313;SDS011;143;51.634;7.112;2023-05-07T01:49:47;13.37;;;7.50;;
313;SDS011;143;51.634;7.112;2023-05-07T01:52:13;10.37;;;6.70;;
313;SDS011;143;51.634;7.112;2023-05-07T01:54:39;10.43;;;8.37;;
313;SDS011;143;51.634;7.112;2023-05-07T01:57:05;9.10;;;6.17;;
313;SDS011;143;51.634;7.112;2023-05-07T01:59:30;8.53;;;5.57;;
313;SDS011;143;51.634;7.112;2023-05-07T02:01:56;6.33;;;5.43;;
313;SDS011;143;51.634;7.112;2023-05-07T02:04:22;9.63;;;7.47;;
313;SDS011;143;51.634;7.112;2023-05-07T02:06:47;11.87;;;8.13;;
313;SDS011;143;51.634;7.112;2023-05-07T02:09:13;8.60;;;7.37;;
313;SDS011;143;51.634;7.112;2023-05-07T02:11:39;9.43;;;6.93;;
313;SDS011;143;51.634;7.112;2023-05-07T02:14:05;7.67;;;6.13;;
313;SDS011;143;51.634;7.112;2023-05-07T02:16:31;9.37;;;6.30;;
313;SDS011;143;51.634;7.112;2023-05-07T02:18:57;8.93;;;6.43;;
313;SDS011;143;51.634;7.112;2023-05-07T02:21:23;8.40;;;6.37;;
313;SDS011;143;51.634;7.112;2023-05-07T02:23:50;11.10;;;7.37;;
313;SDS011;143;51.634;7.112;2023-05-07T02:26:15;7.00;;;6.13;;
313;SDS011;143;51.634;7.112;2023-05-07T02:28:41;9.47;;;6.20;;
313;SDS011;143;51.634;7.112;2023-05-07T02:31:07;12.43;;;6.07;;
313;SDS011;143;51.634;7.112;2023-05-07T02:33:32;11.60;;;6.67;;
313;SDS011;143;51.634;7.112;2023-05-07T02:36:09;15.67;;;8.27;;
313;SDS011;143;51.634;7.112;2023-05-07T02:38:36;9.83;;;7.10;;
313;SDS011;143;51.634;7.112;2023-05-07T02:41:02;6.47;;;5.97;;
313;SDS011;143;51.634;7.112;2023-05-07T02:43:27;8.07;;;6.70;;
313;SDS011;143;51.634;7.112;2023-05-07T02:46:02;13.23;;;8.80;;
313;SDS011;143;51.634;7.112;2023-05-07T02:48:29;10.30;;;7.07;;
313;SDS011;143;51.634;7.112;2023-05-07T02:50:54;13.83;;;7.80;;
313;SDS011;143;51.634;7.112;2023-05-07T02:53:20;10.03;;;7.87;;
313;SDS011;143;51.634;7.112;2023-05-07T02:55:46;11.90;;;8.00;;
313;SDS011;143;51.634;7.112;2023-05-07T02:58:11;12.90;;;8.50;;
313;SDS011;143;51.634;7.112;2023-05-07T03:00:37;10.03;;;6.13;;
313;SDS011;143;51.634;7.112;2023-05-07T03:03:03;10.87;;;7.30;;
313;SDS011;143;51.634;7.112;2023-05-07T03:05:28;9.07;;;7.60;;
313;SDS011;143;51.634;7.112;2023-05-07T03:07:54;12.23;;;7.97;;
313;SDS011;143;51.634;7.112;2023-05-07T03:10:20;12.00;;;8.70;;
313;SDS011;143;51.634;7.112;2023-05-07T03:12:45;10.43;;;7.47;;
313;SDS011;143;51.634;7.112;2023-05-07T03:15:11;7.70;;;6.17;;
313;SDS011;143;51.634;7.112;2023-05-07T03:17:37;7.77;;;6.83;;
313;SDS011;143;51.634;7.112;2023-05-07T03:20:03;12.10;;;9.10;;
313;SDS011;143;51.634;7.112;2023-05-07T03:22:30;8.20;;;6.53;;
313;SDS011;143;51.634;7.112;2023-05-07T03:24:55;13.53;;;7.60;;
313;SDS011;143;51.634;7.112;2023-05-07T03:27:21;10.10;;;7.30;;
313;SDS011;143;51.634;7.112;2023-05-07T03:29:47;10.83;;;7.40;;
313;SDS011;143;51.634;7.112;2023-05-07T03:32:12;10.23;;;6.60;;
313;SDS011;143;51.634;7.112;2023-05-07T03:34:39;9.17;;;6.27;;
313;SDS011;143;51.634;7.112;2023-05-07T03:37:05;10.17;;;7.50;;
313;SDS011;143;51.634;7.112;2023-05-07T03:39:30;9.60;;;8.07;;
313;SDS011;143;51.634;7.112;2023-05-07T03:41:57;8.50;;;6.33;;
313;SDS011;143;51.634;7.112;2023-05-07T03:44:23;11.33;;;6.60;;
313;SDS011;143;51.634;7.112;2023-05-07T03:46:49;10.13;;;7.30;;
313;SDS011;143;51.634;7.112;2023-05-07T03:49:14;10.63;;;8.00;;
313;SDS011;143;51.634;7.112;2023-05-07T03:51:40;17.57;;;9.37;;
313;SDS011;143;51.634;7.112;2023-05-07T03:54:07;8.70;;;7.20;;
313;SDS011;143;51.634;7.112;2023-05-07T03:56:32;13.90;;;9.20;;
313;SDS011;143;51.634;7.112;2023-05-07T03:58:59;11.33;;;7.27;;
313;SDS011;143;51.634;7.112;2023-05-07T04:01:26;8.40;;;7.07;;
313;SDS011;143;51.634;7.112;2023-05-07T04:03:52;7.47;;;6.17;;
313;SDS011;143;51.634;7.112;2023-05-07T04:06:17;9.40;;;7.00;;
313;SDS011;143;51.634;7.112;2023-05-07T04:08:43;9.17;;;7.60;;
313;SDS011;143;51.634;7.112;2023-05-07T04:11:09;11.10;;;7.40;;
313;SDS011;143;51.634;7.112;2023-05-07T04:13:35;9.67;;;7.30;;
313;SDS011;143;51.634;7.112;2023-05-07T04:16:01;8.07;;;7.10;;
313;SDS011;143;51.634;7.112;2023-05-07T04:18:28;11.90;;;7.43;;
313;SDS011;143;51.634;7.112;2023-05-07T04:20:54;10.33;;;8.40;;
313;SDS011;143;51.634;7.112;2023-05-07T04:23:20;21.53;;;7.93;;
313;SDS011;143;51.634;7.112;2023-05-07T04:25:45;12.60;;;8.50;;
313;SDS011;143;51.634;7.112;2023-05-07T04:28:11;10.53;;;7.30;;
313;SDS011;143;51.634;7.112;2023-05-07T04:30:37;15.30;;;8.20;;
313;SDS011;143;51.634;7.112;2023-05-07T04:33:03;13.60;;;10.47;;
313;SDS011;143;51.634;7.112;2023-05-07T04:35:32;13.70;;;7.63;;
313;SDS011;143;51.634;7.112;2023-05-07T04:38:03;11.20;;;8.60;;
313;SDS011;143;51.634;7.112;2023-05-07T04:40:35;11.90;;;8.40;;
313;SDS011;143;51.634;7.112;2023-05-07T04:43:08;14.53;;;8.40;;
313;SDS011;143;51.634;7.112;2023-05-07T04:45:39;9.37;;;7.70;;
313;SDS011;143;51.634;7.112;2023-05-07T04:48:09;9.97;;;6.57;;
313;SDS011;143;51.634;7.112;2023-05-07T04:50:41;10.73;;;8.60;;
313;SDS011;143;51.634;7.112;2023-05-07T04:53:08;12.00;;;6.73;;
313;SDS011;143;51.634;7.112;2023-05-07T04:55:33;9.13;;;7.10;;
313;SDS011;143;51.634;7.112;2023-05-07T04:58:01;8.90;;;6.33;;
313;SDS011;143;51.634;7.112;2023-05-07T05:00:38;9.07;;;6.93;;
313;SDS011;143;51.634;7.112;2023-05-07T05:03:16;13.00;;;6.50;;
313;SDS011;143;51.634;7.112;2023-05-07T05:05:50;6.80;;;5.83;;
313;SDS011;143;51.634;7.112;2023-05-07T05:08:29;8.93;;;6.10;;
313;SDS011;143;51.634;7.112;2023-05-07T05:11:07;7.57;;;6.10;;
313;SDS011;143;51.634;7.112;2023-05-07T05:13:40;9.27;;;5.20;;
313;SDS011;143;51.634;7.112;2023-05-07T05:16:10;10.53;;;6.90;;
313;SDS011;143;51.634;7.112;2023-05-07T05:18:44;11.17;;;6.30;;
313;SDS011;143;51.634;7.112;2023-05-07T05:21:20;8.20;;;6.47;;
313;SDS011;143;51.634;7.112;2023-05-07T05:23:50;11.10;;;6.03;;
313;SDS011;143;51.634;7.112;2023-05-07T05:26:16;14.63;;;7.90;;
313;SDS011;143;51.634;7.112;2023-05-07T05:28:42;9.73;;;6.37;;
313;SDS011;143;51.634;7.112;2023-05-07T05:31:08;16.83;;;8.57;;
313;SDS011;143;51.634;7.112;2023-05-07T05:33:34;8.60;;;5.40;;
313;SDS011;143;51.634;7.112;2023-05-07T05:36:00;13.00;;;6.50;;
313;SDS011;143;51.634;7.112;2023-05-07T05:38:26;10.30;;;5.67;;
313;SDS011;143;51.634;7.112;2023-05-07T05:40:51;9.27;;;6.17;;
313;SDS011;143;51.634;7.112;2023-05-07T05:43:17;9.23;;;6.23;;
313;SDS011;143;51.634;7.112;2023-05-07T05:45:43;8.97;;;5.83;;
313;SDS011;143;51.634;7.112;2023-05-07T05:48:08;6.90;;;4.53;;
313;SDS011;143;51.634;7.112;2023-05-07T05:50:34;10.33;;;5.70;;
313;SDS011;143;51.634;7.112;2023-05-07T05:53:03;11.13;;;5.53;;
313;SDS011;143;51.634;7.112;2023-05-07T05:55:29;9.80;;;5.80;;
313;SDS011;143;51.634;7.112;2023-05-07T05:57:57;9.23;;;6.37;;
313;SDS011;143;51.634;7.112;2023-05-07T06:00:23;11.60;;;6.50;;
313;SDS011;143;51.634;7.112;2023-05-07T06:02:49;12.60;;;6.00;;
313;SDS011;143;51.634;7.112;2023-05-07T06:05:15;10.40;;;6.40;;
313;SDS011;143;51.634;7.112;2023-05-07T06:07:41;12.83;;;7.43;;
313;SDS011;143;51.634;7.112;2023-05-07T06:10:06;10.13;;;5.40;;
313;SDS011;143;51.634;7.112;2023-05-07T06:12:32;14.83;;;6.83;;
313;SDS011;143;51.634;7.112;2023-05-07T06:14:58;11.47;;;4.70;;
313;SDS011;143;51.634;7.112;2023-05-07T06:17:24;11.77;;;5.90;;
313;SDS011;143;51.634;7.112;2023-05-07T06:19:50;30.93;;;6.00;;
313;SDS011;143;51.634;7.112;2023-05-07T06:22:16;12.07;;;5.87;;
313;SDS011;143;51.634;7.112;2023-05-07T06:24:41;10.77;;;6.80;;
313;SDS011;143;51.634;7.112;2023-05-07T06:27:07;8.93;;;5.23;;
313;SDS011;143;51.634;7.112;2023-05-07T06:29:33;13.30;;;5.83;;
313;SDS011;143;51.634;7.112;2023-05-07T06:32:08;10.80;;;6.77;;
313;SDS011;143;51.634;7.112;2023-05-07T06:34:34;10.53;;;6.50;;
313;SDS011;143;51.634;7.112;2023-05-07T06:37:01;8.93;;;6.30;;
313;SDS011;143;51.634;7.112;2023-05-07T06:39:27;16.73;;;7.10;;
313;SDS011;143;51.634;7.112;2023-05-07T06:41:53;14.70;;;6.57;;
313;SDS011;143;51.634;7.112;2023-05-07T06:44:19;6.50;;;4.03;;
313;SDS011;143;51.634;7.112;2023-05-07T06:46:45;12.90;;;6.93;;
313;SDS011;143;51.634;7.112;2023-05-07T06:49:12;9.93;;;5.50;;
313;SDS011;143;51.634;7.112;2023-05-07T06:51:38;20.73;;;9.30;;
313;SDS011;143;51.634;7.112;2023-05-07T06:54:04;9.57;;;6.53;;
313;SDS011;143;51.634;7.112;2023-05-07T06:56:31;7.30;;;5.77;;
313;SDS011;143;51.634;7.112;2023-05-07T06:58:57;11.00;;;5.83;;
313;SDS011;143;51.634;7.112;2023-05-07T07:01:23;12.43;;;5.80;;
313;SDS011;143;51.634;7.112;2023-05-07T07:03:48;9.40;;;5.20;;
313;SDS011;143;51.634;7.112;2023-05-07T07:06:16;14.03;;;6.73;;
313;SDS011;143;51.634;7.112;2023-05-07T07:08:41;12.10;;;7.33;;
313;SDS011;143;51.634;7.112;2023-05-07T07:11:07;13.50;;;8.03;;
313;SDS011;143;51.634;7.112;2023-05-07T07:13:33;10.87;;;6.27;;
313;SDS011;143;51.634;7.112;2023-05-07T07:15:59;8.13;;;6.10;;
313;SDS011;143;51.634;7.112;2023-05-07T07:18:25;13.50;;;7.37;;
313;SDS011;143;51.634;7.112;2023-05-07T07:20:51;8.57;;;4.90;;
313;SDS011;143;51.634;7.112;2023-05-07T07:23:17;8.67;;;4.80;;
313;SDS011;143;51.634;7.112;2023-05-07T07:25:43;12.20;;;5.70;;
313;SDS011;143;51.634;7.112;2023-05-07T07:28:09;12.27;;;6.53;;
313;SDS011;143;51.634;7.112;2023-05-07T07:30:35;8.10;;;4.60;;
313;SDS011;143;51.634;7.112;2023-05-07T07:33:01;9.40;;;5.50;;
313;SDS011;143;51.634;7.112;2023-05-07T07:35:31;8.40;;;6.47;;
313;SDS011;143;51.634;7.112;2023-05-07T07:37:57;7.20;;;5.30;;
313;SDS011;143;51.634;7.112;2023-05-07T07:40:23;15.50;;;8.63;;
313;SDS011;143;51.634;7.112;2023-05-07T07:42:50;12.00;;;8.03;;
313;SDS011;143;51.634;7.112;2023-05-07T07:45:19;10.47;;;8.03;;
313;SDS011;143;51.634;7.112;2023-05-07T07:47:45;10.17;;;8.07;;
313;SDS011;143;51.634;7.112;2023-05-07T07:50:11;13.23;;;9.00;;
313;SDS011;143;51.634;7.112;2023-05-07T07:52:37;13.80;;;9.33;;
313;SDS011;143;51.634;7.112;2023-05-07T07:55:03;14.33;;;10.03;;
313;SDS011;143;51.634;7.112;2023-05-07T07:57:29;14.67;;;9.57;;
313;SDS011;143;51.634;7.112;2023-05-07T07:59:55;21.27;;;9.80;;
313;SDS011;143;51.634;7.112;2023-05-07T08:02:21;12.97;;;9.50;;
313;SDS011;143;51.634;7.112;2023-05-07T08:04:47;11.07;;;8.53;;
313;SDS011;143;51.634;7.112;2023-05-07T08:07:12;12.93;;;9.57;;
313;SDS011;143;51.634;7.112;2023-05-07T08:09:38;13.30;;;9.20;;
313;SDS011;143;51.634;7.112;2023-05-07T08:12:06;13.73;;;10.43;;
313;SDS011;143;51.634;7.112;2023-05-07T08:14:32;17.87;;;10.00;;
313;SDS011;143;51.634;7.112;2023-05-07T08:16:58;11.73;;;8.20;;
313;SDS011;143;51.634;7.112;2023-05-07T08:19:24;13.07;;;9.40;;
313;SDS011;143;51.634;7.112;2023-05-07T08:21:49;6.90;;;5.50;;
313;SDS011;143;51.634;7.112;2023-05-07T08:24:15;15.00;;;6.90;;
313;SDS011;143;51.634;7.112;2023-05-07T08:26:42;10.37;;;6.83;;
313;SDS011;143;51.634;7.112;2023-05-07T08:29:09;11.93;;;9.00;;
313;SDS011;143;51.634;7.112;2023-05-07T08:31:35;14.23;;;9.37;;
313;SDS011;143;51.634;7.112;2023-05-07T08:34:01;11.53;;;8.70;;
313;SDS011;143;51.634;7.112;2023-05-07T08:36:29;13.13;;;10.40;;
313;SDS011;143;51.634;7.112;2023-05-07T08:38:55;17.03;;;10.40;;
313;SDS011;143;51.634;7.112;2023-05-07T08:41:21;15.33;;;10.07;;
313;SDS011;143;51.634;7.112;2023-05-07T08:43:48;14.43;;;10.70;;
313;SDS011;143;51.634;7.112;2023-05-07T08:46:21;14.50;;;10.20;;
313;SDS011;143;51.634;7.112;2023-05-07T08:48:47;19.53;;;12.33;;
313;SDS011;143;51.634;7.112;2023-05-07T08:51:18;21.30;;;11.20;;
313;SDS011;143;51.634;7.112;2023-05-07T08:53:45;17.30;;;11.53;;
313;SDS011;143;51.634;7.112;2023-05-07T08:56:13;11.30;;;7.57;;
313;SDS011;143;51.634;7.112;2023-05-07T08:58:40;16.37;;;11.00;;
313;SDS011;143;51.634;7.112;2023-05-07T09:01:07;14.30;;;10.80;;
313;SDS011;143;51.634;7.112;2023-05-07T09:03:36;16.43;;;12.40;;
313;SDS011;143;51.634;7.112;2023-05-07T09:06:03;14.27;;;11.37;;
313;SDS011;143;51.634;7.112;2023-05-07T09:08:32;17.07;;;12.20;;
313;SDS011;143;51.634;7.112;2023-05-07T09:10:59;12.50;;;11.03;;
313;SDS011;143;51.634;7.112;2023-05-07T09:13:25;23.40;;;13.47;;
313;SDS011;143;51.634;7.112;2023-05-07T09:15:52;21.23;;;14.60;;
313;SDS011;143;51.634;7.112;2023-05-07T09:18:18;21.13;;;12.17;;
313;SDS011;143;51.634;7.112;2023-05-07T09:20:44;19.13;;;12.40;;
313;SDS011;143;51.634;7.112;2023-05-07T09:23:09;19.67;;;12.23;;
313;SDS011;143;51.634;7.112;2023-05-07T09:25:36;19.77;;;13.33;;
313;SDS011;143;51.634;7.112;2023-05-07T09:28:02;21.87;;;12.40;;
313;SDS011;143;51.634;7.112;2023-05-07T09:30:29;14.33;;;10.70;;
313;SDS011;143;51.634;7.112;2023-05-07T09:32:57;18.00;;;12.20;;
313;SDS011;143;51.634;7.112;2023-05-07T09:35:25;21.33;;;14.60;;
313;SDS011;143;51.634;7.112;2023-05-07T09:37:55;16.20;;;12.10;;
313;SDS011;143;51.634;7.112;2023-05-07T09:40:22;24.63;;;12.47;;
313;SDS011;143;51.634;7.112;2023-05-07T09:42:52;16.10;;;12.17;;
313;SDS011;143;51.634;7.112;2023-05-07T09:45:24;19.20;;;11.60;;
313;SDS011;143;51.634;7.112;2023-05-07T09:47:54;19.13;;;12.73;;
313;SDS011;143;51.634;7.112;2023-05-07T09:50:25;20.80;;;13.03;;
313;SDS011;143;51.634;7.112;2023-05-07T09:52:56;26.27;;;11.70;;
313;SDS011;143;51.634;7.112;2023-05-07T09:55:22;14.80;;;10.83;;
313;SDS011;143;51.634;7.112;2023-05-07T09:57:52;18.17;;;12.30;;
313;SDS011;143;51.634;7.112;2023-05-07T10:00:19;13.10;;;10.30;;
313;SDS011;143;51.634;7.112;2023-05-07T10:02:46;15.27;;;10.20;;
313;SDS011;143;51.634;7.112;2023-05-07T10:05:16;15.23;;;9.63;;
313;SDS011;143;51.634;7.112;2023-05-07T10:07:42;12.77;;;8.70;;
313;SDS011;143;51.634;7.112;2023-05-07T10:10:08;10.70;;;8.10;;
313;SDS011;143;51.634;7.112;2023-05-07T10:12:34;15.47;;;8.07;;
313;SDS011;143;51.634;7.112;2023-05-07T10:15:08;16.10;;;8.13;;
313;SDS011;143;51.634;7.112;2023-05-07T10:17:39;12.10;;;9.37;;
313;SDS011;143;51.634;7.112;2023-05-07T10:20:06;15.60;;;8.40;;
313;SDS011;143;51.634;7.112;2023-05-07T10:22:43;13.50;;;9.50;;
313;SDS011;143;51.634;7.112;2023-05-07T10:25:17;20.10;;;10.20;;
313;SDS011;143;51.634;7.112;2023-05-07T10:27:46;16.40;;;10.47;;
313;SDS011;143;51.634;7.112;2023-05-07T10:32:45;17.87;;;11.00;;
313;SDS011;143;51.634;7.112;2023-05-07T10:35:17;15.17;;;10.90;;
313;SDS011;143;51.634;7.112;2023-05-07T10:37:46;14.10;;;9.40;;
313;SDS011;143;51.634;7.112;2023-05-07T10:40:12;11.43;;;8.27;;
313;SDS011;143;51.634;7.112;2023-05-07T10:42:39;13.70;;;8.10;;
313;SDS011;143;51.634;7.112;2023-05-07T10:45:25;10.13;;;7.30;;
313;SDS011;143;51.634;7.112;2023-05-07T10:50:42;12.87;;;7.83;;
313;SDS011;143;51.634;7.112;2023-05-07T10:55:50;11.87;;;9.17;;
313;SDS011;143;51.634;7.112;2023-05-07T11:00:46;11.87;;;6.30;;
313;SDS011;143;51.634;7.112;2023-05-07T11:03:15;8.00;;;5.90;;
313;SDS011;143;51.634;7.112;2023-05-07T11:05:41;10.07;;;6.33;;
313;SDS011;143;51.634;7.112;2023-05-07T11:08:07;13.60;;;7.50;;
313;SDS011;143;51.634;7.112;2023-05-07T11:10:53;13.20;;;5.93;;
313;SDS011;143;51.634;7.112;2023-05-07T11:16:22;9.97;;;6.17;;
313;SDS011;143;51.634;7.112;2023-05-07T11:18:50;8.03;;;6.20;;
313;SDS011;143;51.634;7.112;2023-05-07T11:21:36;7.17;;;5.67;;
313;SDS011;143;51.634;7.112;2023-05-07T11:24:03;8.70;;;6.13;;
313;SDS011;143;51.634;7.112;2023-05-07T11:26:31;10.03;;;7.13;;
313;SDS011;143;51.634;7.112;2023-05-07T11:29:18;5.63;;;4.57;;
313;SDS011;143;51.634;7.112;2023-05-07T11:31:48;11.37;;;4.40;;
313;SDS011;143;51.634;7.112;2023-05-07T11:34:15;8.80;;;5.97;;
313;SDS011;143;51.634;7.112;2023-05-07T11:36:45;11.80;;;7.63;;
313;SDS011;143;51.634;7.112;2023-05-07T11:41:54;10.63;;;7.13;;
313;SDS011;143;51.634;7.112;2023-05-07T11:44:20;12.03;;;8.53;;
313;SDS011;143;51.634;7.112;2023-05-07T11:46:46;15.73;;;8.40;;
313;SDS011;143;51.634;7.112;2023-05-07T11:49:13;10.10;;;7.30;;
313;SDS011;143;51.634;7.112;2023-05-07T11:51:39;11.73;;;7.10;;
313;SDS011;143;51.634;7.112;2023-05-07T11:54:05;18.00;;;8.13;;
313;SDS011;143;51.634;7.112;2023-05-07T11:56:36;12.00;;;6.53;;
313;SDS011;143;51.634;7.112;2023-05-07T11:59:02;9.93;;;7.53;;
313;SDS011;143;51.634;7.112;2023-05-07T12:01:28;13.60;;;7.80;;
313;SDS011;143;51.634;7.112;2023-05-07T12:03:53;10.27;;;7.80;;
313;SDS011;143;51.634;7.112;2023-05-07T12:06:19;12.10;;;7.80;;
313;SDS011;143;51.634;7.112;2023-05-07T12:08:45;14.10;;;8.27;;
313;SDS011;143;51.634;7.112;2023-05-07T12:11:13;11.87;;;7.40;;
313;SDS011;143;51.634;7.112;2023-05-07T12:13:47;10.40;;;6.67;;
313;SDS011;143;51.634;7.112;2023-05-07T12:16:13;14.10;;;8.90;;
313;SDS011;143;51.634;7.112;2023-05-07T12:18:39;12.07;;;8.60;;
313;SDS011;143;51.634;7.112;2023-05-07T12:21:06;10.97;;;7.90;;
313;SDS011;143;51.634;7.112;2023-05-07T12:23:34;12.40;;;7.30;;
313;SDS011;143;51.634;7.112;2023-05-07T12:26:01;11.63;;;8.20;;
313;SDS011;143;51.634;7.112;2023-05-07T12:28:27;10.50;;;7.47;;
313;SDS011;143;51.634;7.112;2023-05-07T12:30:54;10.90;;;7.13;;
313;SDS011;143;51.634;7.112;2023-05-07T12:33:23;22.70;;;7.97;;
313;SDS011;143;51.634;7.112;2023-05-07T12:35:54;10.80;;;7.03;;
313;SDS011;143;51.634;7.112;2023-05-07T12:38:21;12.33;;;8.10;;
313;SDS011;143;51.634;7.112;2023-05-07T12:40:49;10.37;;;7.97;;
313;SDS011;143;51.634;7.112;2023-05-07T12:45:49;12.57;;;8.10;;
313;SDS011;143;51.634;7.112;2023-05-07T12:48:15;11.00;;;8.33;;
313;SDS011;143;51.634;7.112;2023-05-07T12:50:41;13.13;;;8.50;;
313;SDS011;143;51.634;7.112;2023-05-07T12:53:08;13.10;;;9.17;;
313;SDS011;143;51.634;7.112;2023-05-07T12:55:46;15.80;;;10.13;;
313;SDS011;143;51.634;7.112;2023-05-07T13:00:49;13.30;;;8.80;;
313;SDS011;143;51.634;7.112;2023-05-07T13:03:23;13.00;;;9.00;;
313;SDS011;143;51.634;7.112;2023-05-07T13:05:54;11.87;;;8.30;;
313;SDS011;143;51.634;7.112;2023-05-07T13:08:28;13.23;;;7.87;;
313;SDS011;143;51.634;7.112;2023-05-07T13:10:56;10.33;;;7.03;;
313;SDS011;143;51.634;7.112;2023-05-07T13:13:28;11.80;;;8.30;;
313;SDS011;143;51.634;7.112;2023-05-07T13:15:55;9.60;;;7.30;;
313;SDS011;143;51.634;7.112;2023-05-07T13:18:21;12.20;;;8.10;;
313;SDS011;143;51.634;7.112;2023-05-07T13:20:47;8.70;;;6.57;;
313;SDS011;143;51.634;7.112;2023-05-07T13:23:12;13.43;;;8.70;;
313;SDS011;143;51.634;7.112;2023-05-07T13:25:38;12.33;;;8.43;;
313;SDS011;143;51.634;7.112;2023-05-07T13:28:04;19.63;;;8.47;;
313;SDS011;143;51.634;7.112;2023-05-07T13:30:30;14.50;;;8.50;;
313;SDS011;143;51.634;7.112;2023-05-07T13:32:55;12.00;;;7.50;;
313;SDS011;143;51.634;7.112;2023-05-07T13:35:21;14.67;;;9.17;;
313;SDS011;143;51.634;7.112;2023-05-07T13:37:47;13.87;;;7.60;;
313;SDS011;143;51.634;7.112;2023-05-07T13:40:14;12.57;;;8.50;;
313;SDS011;143;51.634;7.112;2023-05-07T13:42:40;11.37;;;7.83;;
313;SDS011;143;51.634;7.112;2023-05-07T13:45:06;14.20;;;9.20;;
313;SDS011;143;51.634;7.112;2023-05-07T13:47:32;11.23;;;8.20;;
313;SDS011;143;51.634;7.112;2023-05-07T13:49:58;12.37;;;7.77;;
313;SDS011;143;51.634;7.112;2023-05-07T13:52:24;11.63;;;7.83;;
313;SDS011;143;51.634;7.112;2023-05-07T13:54:50;21.57;;;7.60;;
313;SDS011;143;51.634;7.112;2023-05-07T13:57:17;13.37;;;7.60;;
313;SDS011;143;51.634;7.112;2023-05-07T13:59:43;13.00;;;8.67;;
313;SDS011;143;51.634;7.112;2023-05-07T14:02:09;13.60;;;9.00;;
313;SDS011;143;51.634;7.112;2023-05-07T14:04:35;13.47;;;8.13;;
313;SDS011;143;51.634;7.112;2023-05-07T14:07:00;15.63;;;7.90;;
313;SDS011;143;51.634;7.112;2023-05-07T14:09:26;11.80;;;8.37;;
313;SDS011;143;51.634;7.112;2023-05-07T14:11:51;13.50;;;7.93;;
313;SDS011;143;51.634;7.112;2023-05-07T14:14:18;10.60;;;6.50;;
313;SDS011;143;51.634;7.112;2023-05-07T14:16:44;9.50;;;6.37;;
313;SDS011;143;51.634;7.112;2023-05-07T14:19:10;11.60;;;7.50;;
313;SDS011;143;51.634;7.112;2023-05-07T14:21:37;11.43;;;7.60;;
313;SDS011;143;51.634;7.112;2023-05-07T14:24:03;11.17;;;6.83;;
313;SDS011;143;51.634;7.112;2023-05-07T14:26:31;11.57;;;7.40;;
313;SDS011;143;51.634;7.112;2023-05-07T14:28:57;10.77;;;7.00;;
313;SDS011;143;51.634;7.112;2023-05-07T14:31:23;9.40;;;6.77;;
313;SDS011;143;51.634;7.112;2023-05-07T14:33:49;10.90;;;6.50;;
313;SDS011;143;51.634;7.112;2023-05-07T14:36:15;10.50;;;7.83;;
313;SDS011;143;51.634;7.112;2023-05-07T14:38:42;11.13;;;7.47;;
313;SDS011;143;51.634;7.112;2023-05-07T14:41:08;20.80;;;9.67;;
313;SDS011;143;51.634;7.112;2023-05-07T14:43:33;12.90;;;8.20;;
313;SDS011;143;51.634;7.112;2023-05-07T14:45:59;16.20;;;8.03;;
313;SDS011;143;51.634;7.112;2023-05-07T14:48:25;12.10;;;7.87;;
313;SDS011;143;51.634;7.112;2023-05-07T14:50:50;15.63;;;8.13;;
313;SDS011;143;51.634;7.112;2023-05-07T14:53:16;13.83;;;6.37;;
313;SDS011;143;51.634;7.112;2023-05-07T14:55:42;11.63;;;6.37;;
313;SDS011;143;51.634;7.112;2023-05-07T14:58:07;10.77;;;7.60;;
313;SDS011;143;51.634;7.112;2023-05-07T15:00:33;9.77;;;7.00;;
313;SDS011;143;51.634;7.112;2023-05-07T15:03:09;12.77;;;8.00;;
313;SDS011;143;51.634;7.112;2023-05-07T15:05:35;9.77;;;7.37;;
313;SDS011;143;51.634;7.112;2023-05-07T15:08:02;10.80;;;6.77;;
313;SDS011;143;51.634;7.112;2023-05-07T15:10:28;10.00;;;7.70;;
313;SDS011;143;51.634;7.112;2023-05-07T15:12:54;8.87;;;6.50;;
313;SDS011;143;51.634;7.112;2023-05-07T15:15:19;10.10;;;7.33;;
313;SDS011;143;51.634;7.112;2023-05-07T15:17:46;8.37;;;6.07;;
313;SDS011;143;51.634;7.112;2023-05-07T15:20:12;9.33;;;6.57;;
313;SDS011;143;51.634;7.112;2023-05-07T15:22:38;8.90;;;6.30;;
313;SDS011;143;51.634;7.112;2023-05-07T15:25:03;16.60;;;6.87;;
313;SDS011;143;51.634;7.112;2023-05-07T15:27:30;10.23;;;7.07;;
313;SDS011;143;51.634;7.112;2023-05-07T15:29:56;9.40;;;7.03;;
313;SDS011;143;51.634;7.112;2023-05-07T15:32:22;11.73;;;8.17;;
313;SDS011;143;51.634;7.112;2023-05-07T15:34:48;10.93;;;6.63;;
313;SDS011;143;51.634;7.112;2023-05-07T15:37:14;14.50;;;9.23;;
313;SDS011;143;51.634;7.112;2023-05-07T15:39:39;10.37;;;7.70;;
313;SDS011;143;51.634;7.112;2023-05-07T15:42:05;17.43;;;9.10;;
313;SDS011;143;51.634;7.112;2023-05-07T15:44:31;12.80;;;9.47;;
313;SDS011;143;51.634;7.112;2023-05-07T15:46:58;12.20;;;8.90;;
313;SDS011;143;51.634;7.112;2023-05-07T15:49:24;9.10;;;7.30;;
313;SDS011;143;51.634;7.112;2023-05-07T15:51:50;12.67;;;7.13;;
313;SDS011;143;51.634;7.112;2023-05-07T15:54:19;10.57;;;7.43;;
313;SDS011;143;51.634;7.112;2023-05-07T15:56:45;15.87;;;9.47;;